Anton, Texas
Current Conditions -  °F | °C
As of 10:53 PM on Saturday 22 Nov 2014 (Local Time) from KLBB Reporting Station
Clear Clear  
Wind Chill: 41°   Ceiling: Unl
Heat Index: 45°   Visibility: 10mi
Dew Point: 32°   Wind: 8mph
Humidity: 60%   Direction: 230°SW
Pressure: 29.71"   Gusts: NA
Location:  33.81°N, 102.16°W
Report Text: KLBB 230453Z 23007KT 10SM CLR 07/00 A2971 RMK AO2 SLP044 T00720000
Loading
Personal Weather Stations






























Interactive Weather Map New forecast layout! Learn more

10-Day Weather Forecast

Advertisements
Track Severe Weather on mobile